| time (UTC) | temp F | wind direction | speed MPH | gust MPH | rain 1hr in | rain 24hr in | rain mn in | humidity % | barometer mb |
| 20260508143039 | 61 | 209 | 5.0 | 9.0 | 0.00 | 0.00 | 0.00 | 62 | 1007.0 |
| 20260508141547 | 60 | 219 | 5.0 | 10.0 | 0.00 | 0.00 | 0.00 | 61 | 1007.2 |
| 20260508140044 | 60 | 244 | 5.0 | 8.0 | 0.00 | 0.00 | 0.00 | 61 | 1007.1 |
| 20260508134537 | 60 | 222 | 6.0 | 8.0 | 0.00 | 0.00 | 0.00 | 60 | 1007.1 |
| 20260508133036 | 59 | 224 | 4.0 | 7.0 | 0.00 | 0.00 | 0.00 | 62 | 1006.8 |
| 20260508131536 | 58 | 202 | 2.0 | 6.0 | 0.00 | 0.00 | 0.00 | 63 | 1007.2 |
| 20260508130036 | 57 | 221 | 3.0 | 5.0 | 0.00 | 0.00 | 0.00 | 65 | 1007.2 |
| 20260508124535 | 56 | 215 | 2.0 | 5.0 | 0.00 | 0.00 | 0.00 | 67 | 1007.5 |
| 20260508123034 | 56 | 245 | 2.0 | 5.0 | 0.00 | 0.00 | 0.00 | 69 | 1007.3 |
| 20260508121533 | 55 | 246 | 1.0 | 5.0 | 0.00 | 0.00 | 0.00 | 68 | 1007.5 |
| 20260508120037 | 56 | 250 | 2.0 | 6.0 | 0.00 | 0.00 | 0.00 | 64 | 1007.4 |
| 20260508114531 | 56 | 259 | 0.0 | 5.0 | 0.00 | 0.00 | 0.00 | 64 | 1007.3 |
| 20260508113030 | 55 | 287 | 1.0 | 7.0 | 0.00 | 0.00 | 0.00 | 65 | 1007.2 |
| 20260508111528 | 56 | 348 | 0.0 | 2.0 | 0.00 | 0.00 | 0.00 | 62 | 1007.0 |
| 20260508110023 | 57 | 244 | 1.0 | 6.0 | 0.00 | 0.00 | 0.00 | 60 | 1006.9 |
| 20260508104522 | 57 | 258 | 1.0 | 4.0 | 0.00 | 0.00 | 0.00 | 58 | 1006.6 |
| 20260508103029 | 58 | 238 | 6.0 | 10.0 | 0.00 | 0.00 | 0.00 | 56 | 1006.5 |
| 20260508101530 | 58 | 245 | 6.0 | 9.0 | 0.00 | 0.00 | 0.00 | 55 | 1006.5 |
| 20260508100017 | 58 | 245 | 7.0 | 11.0 | 0.00 | 0.00 | 0.00 | 53 | 1006.5 |
| 20260508094515 | 59 | 243 | 8.0 | 12.0 | 0.00 | 0.00 | 0.00 | 52 | 1006.5 |
| 20260508093014 | 59 | 242 | 8.0 | 12.0 | 0.00 | 0.00 | 0.00 | 51 | 1006.5 |
| 20260508091514 | 59 | 254 | 8.0 | 13.0 | 0.00 | 0.00 | 0.00 | 50 | 1006.6 |
| 20260508090013 | 60 | 234 | 9.0 | 13.0 | 0.00 | 0.00 | 0.00 | 49 | 1006.5 |
| 20260508084512 | 59 | 242 | 8.0 | 14.0 | 0.00 | 0.00 | 0.00 | 49 | 1006.6 |
| 20260508083012 | 59 | 211 | 7.0 | 10.0 | 0.00 | 0.00 | 0.00 | 48 | 1006.6 |
| 20260508081510 | 60 | 234 | 6.0 | 11.0 | 0.00 | 0.00 | 0.00 | 47 | 1006.7 |
| 20260508080009 | 59 | 230 | 7.0 | 12.0 | 0.00 | 0.00 | 0.00 | 47 | 1007.1 |
| 20260508074508 | 59 | 232 | 6.0 | 11.0 | 0.00 | 0.00 | 0.00 | 47 | 1007.2 |
| 20260508073008 | 60 | 236 | 7.0 | 13.0 | 0.00 | 0.00 | 0.00 | 47 | 1007.3 |
| 20260508071508 | 60 | 225 | 7.0 | 12.0 | 0.00 | 0.00 | 0.00 | 46 | 1007.3 |
| 20260508070006 | 59 | 231 | 7.0 | 14.0 | 0.00 | 0.00 | 0.00 | 46 | 1007.4 |
| 20260508064505 | 58 | 215 | 6.0 | 10.0 | 0.00 | 0.00 | 0.00 | 48 | 1007.4 |
| 20260508063003 | 58 | 215 | 6.0 | 10.0 | 0.00 | 0.00 | 0.00 | 49 | 1007.6 |
| 20260508061601 | 58 | 232 | 5.0 | 9.0 | 0.00 | 0.00 | 0.00 | 50 | 1007.8 |
| 20260508060057 | 59 | 209 | 5.0 | 7.0 | 0.00 | 0.00 | 0.00 | 48 | 1007.6 |
| 20260508054602 | 60 | 210 | 6.0 | 9.0 | 0.00 | 0.00 | 0.00 | 47 | 1007.4 |
| 20260508053051 | 60 | 214 | 8.0 | 12.0 | 0.00 | 0.00 | 0.00 | 46 | 1007.5 |
| 20260508051553 | 61 | 229 | 7.0 | 10.0 | 0.00 | 0.00 | 0.00 | 46 | 1007.6 |
| 20260508050046 | 62 | 221 | 6.0 | 11.0 | 0.00 | 0.00 | 0.00 | 44 | 1007.8 |
| 20260508044546 | 62 | 221 | 8.0 | 11.0 | 0.00 | 0.00 | 0.00 | 43 | 1007.8 |
| 20260508043049 | 60 | 208 | 7.0 | 11.0 | 0.00 | 0.00 | 0.00 | 45 | 1008.0 |
| 20260508041544 | 59 | 212 | 6.0 | 8.0 | 0.00 | 0.00 | 0.00 | 47 | 1008.1 |
| 20260508040044 | 58 | 219 | 5.0 | 8.0 | 0.00 | 0.00 | 0.00 | 48 | 1008.1 |
| 20260508034546 | 58 | 198 | 5.0 | 8.0 | 0.00 | 0.00 | 0.00 | 49 | 1008.0 |
| 20260508033043 | 59 | 210 | 4.0 | 7.0 | 0.00 | 0.00 | 0.00 | 48 | 1008.0 |
| 20260508031542 | 60 | 208 | 5.0 | 7.0 | 0.00 | 0.00 | 0.00 | 48 | 1008.0 |
| 20260508030045 | 61 | 213 | 5.0 | 6.0 | 0.00 | 0.00 | 0.00 | 47 | 1007.9 |
| 20260508024547 | 61 | 207 | 5.0 | 7.0 | 0.00 | 0.00 | 0.00 | 46 | 1007.7 |
| 20260508023041 | 62 | 208 | 5.0 | 7.0 | 0.00 | 0.00 | 0.00 | 46 | 1007.6 |
| 20260508021545 | 63 | 205 | 5.0 | 6.0 | 0.00 | 0.00 | 0.00 | 45 | 1007.5 |
| 20260508020041 | 64 | 207 | 4.0 | 6.0 | 0.00 | 0.00 | 0.00 | 42 | 1007.5 |
| 20260508014549 | 67 | 207 | 4.0 | 5.0 | 0.00 | 0.00 | 0.00 | 38 | 1007.4 |
| 20260508013044 | 70 | 207 | 3.0 | 6.0 | 0.00 | 0.00 | 0.00 | 34 | 1007.2 |
| 20260508011543 | 72 | 226 | 5.0 | 6.0 | 0.00 | 0.00 | 0.00 | 32 | 1007.1 |
| 20260508010038 | 74 | 225 | 3.0 | 6.0 | 0.00 | 0.00 | 0.00 | 29 | 1007.0 |
| 20260508004538 | 77 | 229 | 3.0 | 7.0 | 0.00 | 0.00 | 0.00 | 27 | 1007.1 |
| 20260508003054 | 78 | 246 | 5.0 | 7.0 | 0.00 | 0.00 | 0.00 | 25 | 1007.1 |
| 20260508001536 | 79 | 232 | 4.0 | 9.0 | 0.00 | 0.00 | 0.00 | 25 | 1007.1 |
| 20260508000042 | 79 | 234 | 6.0 | 12.0 | 0.00 | 0.00 | 0.00 | 24 | 1007.2 |
| 20260507234539 | 80 | 244 | 3.0 | 10.0 | 0.00 | 0.00 | 0.00 | 24 | 1007.3 |
| 20260507233037 | 79 | 247 | 5.0 | 13.0 | 0.00 | 0.00 | 0.00 | 24 | 1007.5 |
| 20260507231535 | 80 | 250 | 5.0 | 13.0 | 0.00 | 0.00 | 0.00 | 24 | 1007.6 |
| 20260507230038 | 81 | 240 | 3.0 | 13.0 | 0.00 | 0.00 | 0.00 | 24 | 1007.8 |
| 20260507224543 | 81 | 219 | 8.0 | 13.0 | 0.00 | 0.00 | 0.00 | 25 | 1007.8 |
| 20260507223031 | 81 | 308 | 4.0 | 8.0 | 0.00 | 0.00 | 0.00 | 25 | 1007.9 |
| 20260507221529 | 80 | 236 | 5.0 | 18.0 | 0.00 | 0.00 | 0.00 | 26 | 1008.3 |
| 20260507220027 | 80 | 235 | 6.0 | 13.0 | 0.00 | 0.00 | 0.00 | 25 | 1008.4 |
| 20260507214526 | 80 | 225 | 7.0 | 12.0 | 0.00 | 0.00 | 0.00 | 27 | 1008.5 |
| 20260507213025 | 80 | 232 | 7.0 | 11.0 | 0.00 | 0.00 | 0.00 | 25 | 1009.0 |
| 20260507211523 | 79 | 245 | 9.0 | 16.0 | 0.00 | 0.00 | 0.00 | 26 | 1009.1 |
| 20260507210022 | 78 | 250 | 5.0 | 12.0 | 0.00 | 0.00 | 0.00 | 26 | 1009.6 |
| 20260507204521 | 78 | 234 | 5.0 | 20.0 | 0.00 | 0.00 | 0.00 | 28 | 1009.7 |
| 20260507203019 | 78 | 236 | 5.0 | 16.0 | 0.00 | 0.00 | 0.00 | 27 | 1010.2 |
| 20260507201519 | 78 | 228 | 8.0 | 20.0 | 0.00 | 0.00 | 0.00 | 26 | 1010.3 |
| 20260507200014 | 77 | 225 | 14.0 | 19.0 | 0.00 | 0.00 | 0.00 | 27 | 1010.8 |
| 20260507194512 | 76 | 267 | 7.0 | 14.0 | 0.00 | 0.00 | 0.00 | 30 | 1011.0 |
| 20260507193009 | 75 | 188 | 10.0 | 18.0 | 0.00 | 0.00 | 0.00 | 32 | 1011.4 |
| 20260507191509 | 75 | 230 | 7.0 | 13.0 | 0.00 | 0.00 | 0.00 | 34 | 1011.9 |
| 20260507190006 | 74 | 253 | 11.0 | 19.0 | 0.00 | 0.00 | 0.00 | 34 | 1012.0 |
| 20260507184508 | 73 | 213 | 9.0 | 20.0 | 0.00 | 0.00 | 0.00 | 36 | 1012.2 |
| 20260507183100 | 71 | 252 | 8.0 | 16.0 | 0.00 | 0.00 | 0.00 | 37 | 1012.6 |
| 20260507181559 | 71 | 263 | 7.0 | 15.0 | 0.00 | 0.00 | 0.00 | 37 | 1012.7 |
| 20260507180056 | 70 | 258 | 10.0 | 18.0 | 0.00 | 0.00 | 0.00 | 38 | 1013.2 |
| 20260507174553 | 69 | 225 | 10.0 | 18.0 | 0.00 | 0.00 | 0.00 | 38 | 1013.3 |
| 20260507173049 | 68 | 231 | 7.0 | 22.0 | 0.00 | 0.00 | 0.00 | 41 | 1013.7 |
| 20260507171546 | 67 | 213 | 8.0 | 19.0 | 0.00 | 0.00 | 0.00 | 43 | 1014.0 |
| 20260507170043 | 66 | 224 | 7.0 | 16.0 | 0.00 | 0.00 | 0.00 | 44 | 1014.2 |
| 20260507164540 | 65 | 221 | 9.0 | 15.0 | 0.00 | 0.00 | 0.00 | 45 | 1014.5 |
| 20260507163036 | 64 | 256 | 8.0 | 16.0 | 0.00 | 0.00 | 0.00 | 45 | 1014.8 |
| 20260507161534 | 63 | 252 | 8.0 | 13.0 | 0.00 | 0.00 | 0.00 | 50 | 1015.0 |
| 20260507160034 | 61 | 229 | 9.0 | 15.0 | 0.00 | 0.00 | 0.00 | 51 | 1015.0 |
| 20260507154529 | 60 | 240 | 8.0 | 14.0 | 0.00 | 0.00 | 0.00 | 53 | 1015.3 |
| 20260507153030 | 59 | 257 | 8.0 | 15.0 | 0.00 | 0.00 | 0.00 | 54 | 1015.5 |
| 20260507151521 | 58 | 266 | 8.0 | 16.0 | 0.00 | 0.00 | 0.00 | 57 | 1015.6 |
| 20260507150018 | 57 | 230 | 9.0 | 13.0 | 0.00 | 0.00 | 0.00 | 58 | 1015.6 |
| 20260507144514 | 55 | 280 | 9.0 | 16.0 | 0.00 | 0.00 | 0.00 | 62 | 1015.9 |